sensor_id;sensor_type;location;lat;lon;timestamp;P1;durP1;ratioP1;P2;durP2;ratioP2
5321;SDS011;74629;59.304;18.294;2023-12-07T00:01:56;28.73;;;8.68;;
5321;SDS011;74629;59.304;18.294;2023-12-07T00:04:23;34.85;;;9.43;;
5321;SDS011;74629;59.304;18.294;2023-12-07T00:06:49;31.90;;;9.57;;
5321;SDS011;74629;59.304;18.294;2023-12-07T00:09:16;28.25;;;8.23;;
5321;SDS011;74629;59.304;18.294;2023-12-07T00:11:43;24.88;;;8.70;;
5321;SDS011;74629;59.304;18.294;2023-12-07T00:14:09;19.73;;;7.85;;
5321;SDS011;74629;59.304;18.294;2023-12-07T00:16:37;23.75;;;7.53;;
5321;SDS011;74629;59.304;18.294;2023-12-07T00:19:05;27.35;;;9.48;;
5321;SDS011;74629;59.304;18.294;2023-12-07T00:21:32;27.38;;;8.77;;
5321;SDS011;74629;59.304;18.294;2023-12-07T00:23:59;23.70;;;7.72;;
5321;SDS011;74629;59.304;18.294;2023-12-07T00:26:26;28.20;;;8.13;;
5321;SDS011;74629;59.304;18.294;2023-12-07T00:28:53;26.73;;;7.72;;
5321;SDS011;74629;59.304;18.294;2023-12-07T00:31:19;24.27;;;8.35;;
5321;SDS011;74629;59.304;18.294;2023-12-07T00:33:46;40.90;;;8.95;;
5321;SDS011;74629;59.304;18.294;2023-12-07T00:36:14;28.67;;;7.38;;
5321;SDS011;74629;59.304;18.294;2023-12-07T00:38:41;27.88;;;7.43;;
5321;SDS011;74629;59.304;18.294;2023-12-07T00:41:08;29.67;;;7.25;;
5321;SDS011;74629;59.304;18.294;2023-12-07T00:43:35;25.98;;;7.55;;
5321;SDS011;74629;59.304;18.294;2023-12-07T00:46:01;19.88;;;6.97;;
5321;SDS011;74629;59.304;18.294;2023-12-07T00:48:28;36.05;;;7.50;;
5321;SDS011;74629;59.304;18.294;2023-12-07T00:50:55;27.52;;;7.50;;
5321;SDS011;74629;59.304;18.294;2023-12-07T00:53:23;17.67;;;5.90;;
5321;SDS011;74629;59.304;18.294;2023-12-07T00:55:50;19.10;;;5.38;;
5321;SDS011;74629;59.304;18.294;2023-12-07T00:58:16;24.25;;;6.32;;
5321;SDS011;74629;59.304;18.294;2023-12-07T01:00:43;16.60;;;5.75;;
5321;SDS011;74629;59.304;18.294;2023-12-07T01:03:10;15.38;;;5.65;;
5321;SDS011;74629;59.304;18.294;2023-12-07T01:05:36;15.30;;;5.25;;
5321;SDS011;74629;59.304;18.294;2023-12-07T01:08:03;17.52;;;5.43;;
5321;SDS011;74629;59.304;18.294;2023-12-07T01:10:31;28.10;;;5.70;;
5321;SDS011;74629;59.304;18.294;2023-12-07T01:12:58;25.48;;;6.40;;
5321;SDS011;74629;59.304;18.294;2023-12-07T01:15:25;22.30;;;4.63;;
5321;SDS011;74629;59.304;18.294;2023-12-07T01:17:52;13.52;;;5.15;;
5321;SDS011;74629;59.304;18.294;2023-12-07T01:20:18;13.50;;;4.65;;
5321;SDS011;74629;59.304;18.294;2023-12-07T01:22:45;19.30;;;5.80;;
5321;SDS011;74629;59.304;18.294;2023-12-07T01:25:12;11.02;;;5.18;;
5321;SDS011;74629;59.304;18.294;2023-12-07T01:27:46;12.50;;;5.30;;
5321;SDS011;74629;59.304;18.294;2023-12-07T01:30:13;17.38;;;4.72;;
5321;SDS011;74629;59.304;18.294;2023-12-07T01:32:39;9.93;;;4.18;;
5321;SDS011;74629;59.304;18.294;2023-12-07T01:35:07;17.45;;;4.47;;
5321;SDS011;74629;59.304;18.294;2023-12-07T01:37:33;7.88;;;3.75;;
5321;SDS011;74629;59.304;18.294;2023-12-07T01:40:00;10.43;;;4.40;;
5321;SDS011;74629;59.304;18.294;2023-12-07T01:42:30;17.55;;;4.63;;
5321;SDS011;74629;59.304;18.294;2023-12-07T01:44:58;10.60;;;4.05;;
5321;SDS011;74629;59.304;18.294;2023-12-07T01:47:25;9.60;;;3.20;;
5321;SDS011;74629;59.304;18.294;2023-12-07T01:49:52;21.33;;;4.57;;
5321;SDS011;74629;59.304;18.294;2023-12-07T01:52:19;9.38;;;3.92;;
5321;SDS011;74629;59.304;18.294;2023-12-07T01:54:47;9.63;;;3.50;;
5321;SDS011;74629;59.304;18.294;2023-12-07T01:57:14;10.25;;;3.25;;
5321;SDS011;74629;59.304;18.294;2023-12-07T01:59:41;9.63;;;3.65;;
5321;SDS011;74629;59.304;18.294;2023-12-07T02:02:09;6.10;;;2.85;;
5321;SDS011;74629;59.304;18.294;2023-12-07T02:04:35;5.00;;;2.65;;
5321;SDS011;74629;59.304;18.294;2023-12-07T02:07:02;5.75;;;3.40;;
5321;SDS011;74629;59.304;18.294;2023-12-07T02:09:29;10.75;;;3.53;;
5321;SDS011;74629;59.304;18.294;2023-12-07T02:11:56;8.63;;;3.70;;
5321;SDS011;74629;59.304;18.294;2023-12-07T02:14:23;7.85;;;3.70;;
5321;SDS011;74629;59.304;18.294;2023-12-07T02:16:50;12.10;;;3.67;;
5321;SDS011;74629;59.304;18.294;2023-12-07T02:19:35;8.93;;;3.55;;
5321;SDS011;74629;59.304;18.294;2023-12-07T02:22:09;14.50;;;4.50;;
5321;SDS011;74629;59.304;18.294;2023-12-07T02:24:39;11.43;;;4.18;;
5321;SDS011;74629;59.304;18.294;2023-12-07T02:27:13;12.85;;;4.22;;
5321;SDS011;74629;59.304;18.294;2023-12-07T02:29:39;8.95;;;3.53;;
5321;SDS011;74629;59.304;18.294;2023-12-07T02:32:06;13.18;;;4.40;;
5321;SDS011;74629;59.304;18.294;2023-12-07T02:34:32;9.98;;;4.28;;
5321;SDS011;74629;59.304;18.294;2023-12-07T02:36:59;19.60;;;4.20;;
5321;SDS011;74629;59.304;18.294;2023-12-07T02:39:27;11.57;;;4.03;;
5321;SDS011;74629;59.304;18.294;2023-12-07T02:41:54;21.73;;;4.82;;
5321;SDS011;74629;59.304;18.294;2023-12-07T02:44:23;8.38;;;3.90;;
5321;SDS011;74629;59.304;18.294;2023-12-07T02:46:50;8.98;;;3.25;;
5321;SDS011;74629;59.304;18.294;2023-12-07T02:49:16;10.45;;;3.40;;
5321;SDS011;74629;59.304;18.294;2023-12-07T02:51:43;12.63;;;4.25;;
5321;SDS011;74629;59.304;18.294;2023-12-07T02:54:10;14.82;;;3.75;;
5321;SDS011;74629;59.304;18.294;2023-12-07T02:56:36;7.40;;;3.40;;
5321;SDS011;74629;59.304;18.294;2023-12-07T02:59:03;13.10;;;3.50;;
5321;SDS011;74629;59.304;18.294;2023-12-07T03:01:31;5.40;;;2.80;;
5321;SDS011;74629;59.304;18.294;2023-12-07T03:03:58;11.32;;;3.88;;
5321;SDS011;74629;59.304;18.294;2023-12-07T03:06:24;13.23;;;4.07;;
5321;SDS011;74629;59.304;18.294;2023-12-07T03:08:51;8.35;;;4.10;;
5321;SDS011;74629;59.304;18.294;2023-12-07T03:11:18;9.40;;;4.03;;
5321;SDS011;74629;59.304;18.294;2023-12-07T03:13:44;9.85;;;3.50;;
5321;SDS011;74629;59.304;18.294;2023-12-07T03:16:11;8.52;;;3.75;;
5321;SDS011;74629;59.304;18.294;2023-12-07T03:18:39;17.00;;;4.45;;
5321;SDS011;74629;59.304;18.294;2023-12-07T03:21:05;9.40;;;3.92;;
5321;SDS011;74629;59.304;18.294;2023-12-07T03:23:32;8.70;;;3.75;;
5321;SDS011;74629;59.304;18.294;2023-12-07T03:25:59;14.63;;;3.17;;
5321;SDS011;74629;59.304;18.294;2023-12-07T03:28:25;6.07;;;3.70;;
5321;SDS011;74629;59.304;18.294;2023-12-07T03:30:51;9.43;;;3.87;;
5321;SDS011;74629;59.304;18.294;2023-12-07T03:33:18;12.27;;;3.38;;
5321;SDS011;74629;59.304;18.294;2023-12-07T03:35:46;12.60;;;3.08;;
5321;SDS011;74629;59.304;18.294;2023-12-07T03:38:12;8.35;;;3.97;;
5321;SDS011;74629;59.304;18.294;2023-12-07T03:40:39;13.68;;;3.20;;
5321;SDS011;74629;59.304;18.294;2023-12-07T03:43:05;10.82;;;3.72;;
5321;SDS011;74629;59.304;18.294;2023-12-07T03:45:32;8.98;;;2.92;;
5321;SDS011;74629;59.304;18.294;2023-12-07T03:47:59;8.18;;;3.47;;
5321;SDS011;74629;59.304;18.294;2023-12-07T03:50:25;5.18;;;3.15;;
5321;SDS011;74629;59.304;18.294;2023-12-07T03:52:53;3.28;;;2.60;;
5321;SDS011;74629;59.304;18.294;2023-12-07T03:55:20;2.95;;;2.40;;
5321;SDS011;74629;59.304;18.294;2023-12-07T03:57:47;5.45;;;2.90;;
5321;SDS011;74629;59.304;18.294;2023-12-07T04:00:14;6.05;;;2.85;;
5321;SDS011;74629;59.304;18.294;2023-12-07T04:02:41;5.18;;;2.70;;
5321;SDS011;74629;59.304;18.294;2023-12-07T04:05:07;4.10;;;2.60;;
5321;SDS011;74629;59.304;18.294;2023-12-07T04:07:34;5.68;;;2.75;;
5321;SDS011;74629;59.304;18.294;2023-12-07T04:10:02;7.78;;;3.80;;
5321;SDS011;74629;59.304;18.294;2023-12-07T04:12:31;6.30;;;2.55;;
5321;SDS011;74629;59.304;18.294;2023-12-07T04:14:58;2.95;;;2.65;;
5321;SDS011;74629;59.304;18.294;2023-12-07T04:17:24;4.40;;;2.97;;
5321;SDS011;74629;59.304;18.294;2023-12-07T04:19:51;3.97;;;2.88;;
5321;SDS011;74629;59.304;18.294;2023-12-07T04:22:17;5.63;;;3.10;;
5321;SDS011;74629;59.304;18.294;2023-12-07T04:24:44;6.22;;;2.55;;
5321;SDS011;74629;59.304;18.294;2023-12-07T04:27:12;3.33;;;2.55;;
5321;SDS011;74629;59.304;18.294;2023-12-07T04:29:39;7.15;;;2.90;;
5321;SDS011;74629;59.304;18.294;2023-12-07T04:32:06;6.25;;;2.55;;
5321;SDS011;74629;59.304;18.294;2023-12-07T04:34:33;3.85;;;2.92;;
5321;SDS011;74629;59.304;18.294;2023-12-07T04:36:59;4.45;;;2.90;;
5321;SDS011;74629;59.304;18.294;2023-12-07T04:39:26;5.45;;;2.97;;
5321;SDS011;74629;59.304;18.294;2023-12-07T04:41:53;5.45;;;2.95;;
5321;SDS011;74629;59.304;18.294;2023-12-07T04:44:21;6.03;;;3.25;;
5321;SDS011;74629;59.304;18.294;2023-12-07T04:46:50;9.50;;;3.53;;
5321;SDS011;74629;59.304;18.294;2023-12-07T04:49:17;4.32;;;3.15;;
5321;SDS011;74629;59.304;18.294;2023-12-07T04:51:44;12.05;;;3.35;;
5321;SDS011;74629;59.304;18.294;2023-12-07T04:54:11;9.30;;;3.45;;
5321;SDS011;74629;59.304;18.294;2023-12-07T04:56:39;7.68;;;3.10;;
5321;SDS011;74629;59.304;18.294;2023-12-07T04:59:06;5.20;;;2.63;;
5321;SDS011;74629;59.304;18.294;2023-12-07T05:01:35;8.77;;;3.15;;
5321;SDS011;74629;59.304;18.294;2023-12-07T05:04:02;6.25;;;3.15;;
5321;SDS011;74629;59.304;18.294;2023-12-07T05:06:28;5.72;;;2.70;;
5321;SDS011;74629;59.304;18.294;2023-12-07T05:08:55;5.38;;;2.60;;
5321;SDS011;74629;59.304;18.294;2023-12-07T05:11:22;4.65;;;3.45;;
5321;SDS011;74629;59.304;18.294;2023-12-07T05:13:48;7.25;;;3.35;;
5321;SDS011;74629;59.304;18.294;2023-12-07T05:16:15;3.75;;;2.47;;
5321;SDS011;74629;59.304;18.294;2023-12-07T05:18:43;3.80;;;2.63;;
5321;SDS011;74629;59.304;18.294;2023-12-07T05:21:10;5.57;;;2.80;;
5321;SDS011;74629;59.304;18.294;2023-12-07T05:23:37;3.90;;;2.55;;
5321;SDS011;74629;59.304;18.294;2023-12-07T05:26:04;3.83;;;2.72;;
5321;SDS011;74629;59.304;18.294;2023-12-07T05:28:33;4.60;;;2.58;;
5321;SDS011;74629;59.304;18.294;2023-12-07T05:30:59;5.20;;;2.67;;
5321;SDS011;74629;59.304;18.294;2023-12-07T05:33:26;8.85;;;2.95;;
5321;SDS011;74629;59.304;18.294;2023-12-07T05:35:54;11.10;;;2.95;;
5321;SDS011;74629;59.304;18.294;2023-12-07T05:38:21;6.53;;;3.05;;
5321;SDS011;74629;59.304;18.294;2023-12-07T05:40:48;3.25;;;2.42;;
5321;SDS011;74629;59.304;18.294;2023-12-07T05:43:14;2.88;;;1.98;;
5321;SDS011;74629;59.304;18.294;2023-12-07T05:45:41;6.43;;;2.63;;
5321;SDS011;74629;59.304;18.294;2023-12-07T05:48:08;2.33;;;2.13;;
5321;SDS011;74629;59.304;18.294;2023-12-07T05:50:34;5.28;;;2.70;;
5321;SDS011;74629;59.304;18.294;2023-12-07T05:53:05;4.55;;;3.20;;
5321;SDS011;74629;59.304;18.294;2023-12-07T05:55:32;3.25;;;2.53;;
5321;SDS011;74629;59.304;18.294;2023-12-07T05:57:59;7.45;;;3.22;;
5321;SDS011;74629;59.304;18.294;2023-12-07T06:00:26;5.72;;;3.50;;
5321;SDS011;74629;59.304;18.294;2023-12-07T06:04:49;8.40;;;3.65;;
5321;SDS011;74629;59.304;18.294;2023-12-07T06:07:16;11.23;;;4.35;;
5321;SDS011;74629;59.304;18.294;2023-12-07T06:09:42;12.05;;;3.35;;
5321;SDS011;74629;59.304;18.294;2023-12-07T06:12:09;6.00;;;3.85;;
5321;SDS011;74629;59.304;18.294;2023-12-07T06:14:36;6.95;;;3.72;;
5321;SDS011;74629;59.304;18.294;2023-12-07T06:17:03;10.52;;;3.67;;
5321;SDS011;74629;59.304;18.294;2023-12-07T06:19:29;8.55;;;4.00;;
5321;SDS011;74629;59.304;18.294;2023-12-07T06:21:58;7.32;;;3.15;;
5321;SDS011;74629;59.304;18.294;2023-12-07T06:24:24;5.28;;;3.13;;
5321;SDS011;74629;59.304;18.294;2023-12-07T06:26:51;4.55;;;3.00;;
5321;SDS011;74629;59.304;18.294;2023-12-07T06:29:18;7.18;;;3.45;;
5321;SDS011;74629;59.304;18.294;2023-12-07T06:31:45;6.88;;;3.75;;
5321;SDS011;74629;59.304;18.294;2023-12-07T06:34:12;5.00;;;3.00;;
5321;SDS011;74629;59.304;18.294;2023-12-07T06:36:38;8.60;;;3.53;;
5321;SDS011;74629;59.304;18.294;2023-12-07T06:39:06;3.33;;;2.65;;
5321;SDS011;74629;59.304;18.294;2023-12-07T06:41:33;4.00;;;3.28;;
5321;SDS011;74629;59.304;18.294;2023-12-07T06:44:00;6.43;;;3.65;;
5321;SDS011;74629;59.304;18.294;2023-12-07T06:46:26;7.95;;;3.60;;
5321;SDS011;74629;59.304;18.294;2023-12-07T06:48:53;4.38;;;3.10;;
5321;SDS011;74629;59.304;18.294;2023-12-07T06:51:20;8.30;;;3.55;;
5321;SDS011;74629;59.304;18.294;2023-12-07T06:53:47;4.30;;;3.20;;
5321;SDS011;74629;59.304;18.294;2023-12-07T06:56:15;3.97;;;2.70;;
5321;SDS011;74629;59.304;18.294;2023-12-07T06:58:41;5.30;;;2.90;;
5321;SDS011;74629;59.304;18.294;2023-12-07T07:01:11;8.60;;;3.63;;
5321;SDS011;74629;59.304;18.294;2023-12-07T07:03:38;7.10;;;3.15;;
5321;SDS011;74629;59.304;18.294;2023-12-07T07:06:05;8.05;;;3.28;;
5321;SDS011;74629;59.304;18.294;2023-12-07T07:08:31;6.90;;;3.15;;
5321;SDS011;74629;59.304;18.294;2023-12-07T07:10:58;4.90;;;2.75;;
5321;SDS011;74629;59.304;18.294;2023-12-07T07:13:26;7.28;;;3.78;;
5321;SDS011;74629;59.304;18.294;2023-12-07T07:15:53;7.63;;;3.47;;
5321;SDS011;74629;59.304;18.294;2023-12-07T07:18:20;5.35;;;3.05;;
5321;SDS011;74629;59.304;18.294;2023-12-07T07:20:49;9.52;;;3.35;;
5321;SDS011;74629;59.304;18.294;2023-12-07T07:23:15;7.38;;;2.72;;
5321;SDS011;74629;59.304;18.294;2023-12-07T07:25:42;5.57;;;3.50;;
5321;SDS011;74629;59.304;18.294;2023-12-07T07:28:09;8.07;;;4.05;;
5321;SDS011;74629;59.304;18.294;2023-12-07T07:30:37;13.82;;;4.80;;
5321;SDS011;74629;59.304;18.294;2023-12-07T07:33:03;9.98;;;4.20;;
5321;SDS011;74629;59.304;18.294;2023-12-07T07:35:30;8.77;;;3.83;;
5321;SDS011;74629;59.304;18.294;2023-12-07T07:37:57;6.55;;;4.57;;
5321;SDS011;74629;59.304;18.294;2023-12-07T07:40:23;13.05;;;4.50;;
5321;SDS011;74629;59.304;18.294;2023-12-07T07:42:50;9.10;;;5.43;;
5321;SDS011;74629;59.304;18.294;2023-12-07T07:45:17;11.23;;;6.15;;
5321;SDS011;74629;59.304;18.294;2023-12-07T07:47:45;12.52;;;6.45;;
5321;SDS011;74629;59.304;18.294;2023-12-07T07:50:12;15.52;;;8.10;;
5321;SDS011;74629;59.304;18.294;2023-12-07T07:52:38;18.20;;;8.52;;
5321;SDS011;74629;59.304;18.294;2023-12-07T07:55:06;16.30;;;8.50;;
5321;SDS011;74629;59.304;18.294;2023-12-07T07:57:33;24.95;;;8.60;;
5321;SDS011;74629;59.304;18.294;2023-12-07T07:59:59;11.02;;;7.07;;
5321;SDS011;74629;59.304;18.294;2023-12-07T08:02:26;11.23;;;5.25;;
5321;SDS011;74629;59.304;18.294;2023-12-07T08:04:54;13.32;;;4.13;;
5321;SDS011;74629;59.304;18.294;2023-12-07T08:07:21;7.43;;;4.25;;
5321;SDS011;74629;59.304;18.294;2023-12-07T08:09:48;8.68;;;4.32;;
5321;SDS011;74629;59.304;18.294;2023-12-07T08:12:16;11.68;;;4.20;;
5321;SDS011;74629;59.304;18.294;2023-12-07T08:14:43;9.68;;;4.53;;
5321;SDS011;74629;59.304;18.294;2023-12-07T08:17:11;8.88;;;4.20;;
5321;SDS011;74629;59.304;18.294;2023-12-07T08:19:37;4.50;;;3.72;;
5321;SDS011;74629;59.304;18.294;2023-12-07T08:22:06;14.48;;;5.00;;
5321;SDS011;74629;59.304;18.294;2023-12-07T08:24:33;9.38;;;5.03;;
5321;SDS011;74629;59.304;18.294;2023-12-07T08:27:03;19.63;;;7.05;;
5321;SDS011;74629;59.304;18.294;2023-12-07T08:29:30;16.65;;;6.78;;
5321;SDS011;74629;59.304;18.294;2023-12-07T08:31:56;15.30;;;6.75;;
5321;SDS011;74629;59.304;18.294;2023-12-07T08:34:23;9.00;;;5.43;;
5321;SDS011;74629;59.304;18.294;2023-12-07T08:36:50;10.43;;;4.20;;
5321;SDS011;74629;59.304;18.294;2023-12-07T08:39:18;3.80;;;3.42;;
5321;SDS011;74629;59.304;18.294;2023-12-07T08:41:45;6.40;;;3.80;;
5321;SDS011;74629;59.304;18.294;2023-12-07T08:44:11;12.00;;;3.72;;
5321;SDS011;74629;59.304;18.294;2023-12-07T08:46:38;8.07;;;4.55;;
5321;SDS011;74629;59.304;18.294;2023-12-07T08:49:05;6.25;;;3.92;;
5321;SDS011;74629;59.304;18.294;2023-12-07T08:51:32;9.95;;;4.88;;
5321;SDS011;74629;59.304;18.294;2023-12-07T08:53:58;5.78;;;3.97;;
5321;SDS011;74629;59.304;18.294;2023-12-07T08:56:27;4.45;;;3.22;;
5321;SDS011;74629;59.304;18.294;2023-12-07T08:58:53;11.95;;;4.93;;
5321;SDS011;74629;59.304;18.294;2023-12-07T09:01:20;18.58;;;4.65;;
5321;SDS011;74629;59.304;18.294;2023-12-07T09:03:46;7.32;;;4.05;;
5321;SDS011;74629;59.304;18.294;2023-12-07T09:06:13;7.05;;;4.50;;
5321;SDS011;74629;59.304;18.294;2023-12-07T09:08:40;9.75;;;4.40;;
5321;SDS011;74629;59.304;18.294;2023-12-07T09:11:06;10.18;;;4.40;;
5321;SDS011;74629;59.304;18.294;2023-12-07T09:13:34;9.40;;;4.60;;
5321;SDS011;74629;59.304;18.294;2023-12-07T09:16:01;16.40;;;4.60;;
5321;SDS011;74629;59.304;18.294;2023-12-07T09:18:29;6.97;;;4.60;;
5321;SDS011;74629;59.304;18.294;2023-12-07T09:20:55;8.18;;;4.60;;
5321;SDS011;74629;59.304;18.294;2023-12-07T09:23:22;14.70;;;4.00;;
5321;SDS011;74629;59.304;18.294;2023-12-07T09:25:49;7.72;;;4.80;;
5321;SDS011;74629;59.304;18.294;2023-12-07T09:28:15;10.90;;;4.90;;
5321;SDS011;74629;59.304;18.294;2023-12-07T09:30:43;8.65;;;4.35;;
5321;SDS011;74629;59.304;18.294;2023-12-07T09:33:10;10.55;;;5.13;;
5321;SDS011;74629;59.304;18.294;2023-12-07T09:35:38;9.00;;;4.57;;
5321;SDS011;74629;59.304;18.294;2023-12-07T09:38:05;10.45;;;4.32;;
5321;SDS011;74629;59.304;18.294;2023-12-07T09:40:32;11.75;;;4.68;;
5321;SDS011;74629;59.304;18.294;2023-12-07T09:42:58;14.00;;;4.32;;
5321;SDS011;74629;59.304;18.294;2023-12-07T09:45:25;9.27;;;4.47;;
5321;SDS011;74629;59.304;18.294;2023-12-07T09:47:54;5.95;;;4.00;;
5321;SDS011;74629;59.304;18.294;2023-12-07T09:50:21;6.03;;;3.72;;
5321;SDS011;74629;59.304;18.294;2023-12-07T09:52:48;5.88;;;3.88;;
5321;SDS011;74629;59.304;18.294;2023-12-07T09:55:15;6.95;;;3.85;;
5321;SDS011;74629;59.304;18.294;2023-12-07T09:57:42;5.85;;;3.58;;
5321;SDS011;74629;59.304;18.294;2023-12-07T10:00:10;4.68;;;3.55;;
5321;SDS011;74629;59.304;18.294;2023-12-07T10:02:39;8.77;;;3.90;;
5321;SDS011;74629;59.304;18.294;2023-12-07T10:05:08;6.90;;;3.45;;
5321;SDS011;74629;59.304;18.294;2023-12-07T10:07:36;7.63;;;3.60;;
5321;SDS011;74629;59.304;18.294;2023-12-07T10:10:03;6.15;;;3.75;;
5321;SDS011;74629;59.304;18.294;2023-12-07T10:12:30;9.80;;;4.15;;
5321;SDS011;74629;59.304;18.294;2023-12-07T10:14:59;5.70;;;4.07;;
5321;SDS011;74629;59.304;18.294;2023-12-07T10:17:31;6.75;;;3.90;;
5321;SDS011;74629;59.304;18.294;2023-12-07T10:20:11;4.90;;;3.35;;
5321;SDS011;74629;59.304;18.294;2023-12-07T10:22:38;6.00;;;3.35;;
5321;SDS011;74629;59.304;18.294;2023-12-07T10:25:06;6.85;;;3.05;;
5321;SDS011;74629;59.304;18.294;2023-12-07T10:27:33;8.45;;;4.63;;
5321;SDS011;74629;59.304;18.294;2023-12-07T10:30:00;5.75;;;3.63;;
5321;SDS011;74629;59.304;18.294;2023-12-07T10:32:27;6.80;;;5.03;;
5321;SDS011;74629;59.304;18.294;2023-12-07T10:34:53;4.13;;;3.55;;
5321;SDS011;74629;59.304;18.294;2023-12-07T10:37:23;5.35;;;3.92;;
5321;SDS011;74629;59.304;18.294;2023-12-07T10:39:51;10.32;;;4.00;;
5321;SDS011;74629;59.304;18.294;2023-12-07T10:42:17;6.78;;;3.85;;
5321;SDS011;74629;59.304;18.294;2023-12-07T10:44:45;4.75;;;3.55;;
5321;SDS011;74629;59.304;18.294;2023-12-07T10:47:14;7.53;;;4.40;;
5321;SDS011;74629;59.304;18.294;2023-12-07T10:49:42;6.30;;;3.30;;
5321;SDS011;74629;59.304;18.294;2023-12-07T10:52:11;6.05;;;4.53;;
5321;SDS011;74629;59.304;18.294;2023-12-07T10:54:41;5.03;;;3.83;;
5321;SDS011;74629;59.304;18.294;2023-12-07T10:57:10;7.15;;;4.20;;
5321;SDS011;74629;59.304;18.294;2023-12-07T10:59:39;10.13;;;5.03;;
5321;SDS011;74629;59.304;18.294;2023-12-07T11:02:07;10.13;;;4.20;;
5321;SDS011;74629;59.304;18.294;2023-12-07T11:04:35;10.27;;;4.25;;
5321;SDS011;74629;59.304;18.294;2023-12-07T11:07:04;10.30;;;4.80;;
5321;SDS011;74629;59.304;18.294;2023-12-07T11:09:34;8.25;;;4.57;;
5321;SDS011;74629;59.304;18.294;2023-12-07T11:12:04;7.97;;;4.30;;
5321;SDS011;74629;59.304;18.294;2023-12-07T11:15:06;7.53;;;4.93;;
5321;SDS011;74629;59.304;18.294;2023-12-07T11:17:47;10.93;;;4.93;;
5321;SDS011;74629;59.304;18.294;2023-12-07T11:20:18;11.30;;;5.30;;
5321;SDS011;74629;59.304;18.294;2023-12-07T11:22:45;13.55;;;5.80;;
5321;SDS011;74629;59.304;18.294;2023-12-07T11:25:12;10.02;;;5.80;;
5321;SDS011;74629;59.304;18.294;2023-12-07T11:27:38;12.35;;;5.88;;
5321;SDS011;74629;59.304;18.294;2023-12-07T11:30:07;12.40;;;5.22;;
5321;SDS011;74629;59.304;18.294;2023-12-07T11:32:34;16.75;;;4.78;;
5321;SDS011;74629;59.304;18.294;2023-12-07T11:35:05;5.38;;;4.50;;
5321;SDS011;74629;59.304;18.294;2023-12-07T11:40:22;8.70;;;4.15;;
5321;SDS011;74629;59.304;18.294;2023-12-07T11:42:50;8.93;;;4.00;;
5321;SDS011;74629;59.304;18.294;2023-12-07T11:45:23;9.43;;;4.50;;
5321;SDS011;74629;59.304;18.294;2023-12-07T11:48:11;6.35;;;3.97;;
5321;SDS011;74629;59.304;18.294;2023-12-07T11:50:54;13.63;;;4.97;;
5321;SDS011;74629;59.304;18.294;2023-12-07T11:53:21;9.02;;;4.88;;
5321;SDS011;74629;59.304;18.294;2023-12-07T11:55:48;8.32;;;4.43;;
5321;SDS011;74629;59.304;18.294;2023-12-07T11:58:15;7.97;;;4.00;;
5321;SDS011;74629;59.304;18.294;2023-12-07T12:00:44;4.70;;;3.33;;
5321;SDS011;74629;59.304;18.294;2023-12-07T12:03:11;8.20;;;3.55;;
5321;SDS011;74629;59.304;18.294;2023-12-07T12:05:38;5.57;;;3.42;;
5321;SDS011;74629;59.304;18.294;2023-12-07T12:08:05;6.53;;;3.97;;
5321;SDS011;74629;59.304;18.294;2023-12-07T12:10:32;5.38;;;4.18;;
5321;SDS011;74629;59.304;18.294;2023-12-07T12:13:00;5.38;;;3.50;;
5321;SDS011;74629;59.304;18.294;2023-12-07T12:15:27;3.95;;;3.30;;
5321;SDS011;74629;59.304;18.294;2023-12-07T12:17:56;5.00;;;3.10;;
5321;SDS011;74629;59.304;18.294;2023-12-07T12:20:23;3.95;;;3.40;;
5321;SDS011;74629;59.304;18.294;2023-12-07T12:22:50;5.97;;;3.95;;
5321;SDS011;74629;59.304;18.294;2023-12-07T12:25:18;9.77;;;3.88;;
5321;SDS011;74629;59.304;18.294;2023-12-07T12:27:46;5.78;;;4.15;;
5321;SDS011;74629;59.304;18.294;2023-12-07T12:30:13;7.95;;;4.03;;
5321;SDS011;74629;59.304;18.294;2023-12-07T12:32:43;4.30;;;3.40;;
5321;SDS011;74629;59.304;18.294;2023-12-07T12:35:11;8.65;;;3.78;;
5321;SDS011;74629;59.304;18.294;2023-12-07T12:37:39;14.57;;;3.97;;
5321;SDS011;74629;59.304;18.294;2023-12-07T12:40:06;4.05;;;3.65;;
5321;SDS011;74629;59.304;18.294;2023-12-07T12:42:33;7.15;;;3.53;;
5321;SDS011;74629;59.304;18.294;2023-12-07T12:45:02;4.63;;;3.15;;
5321;SDS011;74629;59.304;18.294;2023-12-07T12:47:29;7.70;;;4.07;;
5321;SDS011;74629;59.304;18.294;2023-12-07T12:49:56;8.32;;;3.60;;
5321;SDS011;74629;59.304;18.294;2023-12-07T12:52:24;4.38;;;3.30;;
5321;SDS011;74629;59.304;18.294;2023-12-07T12:54:51;10.00;;;4.20;;
5321;SDS011;74629;59.304;18.294;2023-12-07T12:57:18;6.93;;;3.72;;
5321;SDS011;74629;59.304;18.294;2023-12-07T12:59:45;5.43;;;3.47;;
5321;SDS011;74629;59.304;18.294;2023-12-07T13:02:11;6.28;;;4.30;;
5321;SDS011;74629;59.304;18.294;2023-12-07T13:04:38;7.95;;;4.20;;
5321;SDS011;74629;59.304;18.294;2023-12-07T13:07:05;5.55;;;4.07;;
5321;SDS011;74629;59.304;18.294;2023-12-07T13:09:33;7.53;;;4.00;;
5321;SDS011;74629;59.304;18.294;2023-12-07T13:11:59;10.88;;;4.88;;
5321;SDS011;74629;59.304;18.294;2023-12-07T13:14:26;14.57;;;4.88;;
5321;SDS011;74629;59.304;18.294;2023-12-07T13:16:53;12.55;;;4.90;;
5321;SDS011;74629;59.304;18.294;2023-12-07T13:19:19;8.05;;;4.60;;
5321;SDS011;74629;59.304;18.294;2023-12-07T13:21:46;9.77;;;3.95;;
5321;SDS011;74629;59.304;18.294;2023-12-07T13:24:13;9.85;;;5.43;;
5321;SDS011;74629;59.304;18.294;2023-12-07T13:26:41;12.27;;;5.25;;
5321;SDS011;74629;59.304;18.294;2023-12-07T13:29:08;9.88;;;4.60;;
5321;SDS011;74629;59.304;18.294;2023-12-07T13:31:35;12.07;;;4.68;;
5321;SDS011;74629;59.304;18.294;2023-12-07T13:34:02;10.95;;;5.20;;
5321;SDS011;74629;59.304;18.294;2023-12-07T13:36:28;7.57;;;5.00;;
5321;SDS011;74629;59.304;18.294;2023-12-07T13:38:57;5.05;;;4.57;;
5321;SDS011;74629;59.304;18.294;2023-12-07T13:41:23;9.40;;;5.30;;
5321;SDS011;74629;59.304;18.294;2023-12-07T13:43:51;8.77;;;5.10;;
5321;SDS011;74629;59.304;18.294;2023-12-07T13:46:18;6.38;;;4.60;;
5321;SDS011;74629;59.304;18.294;2023-12-07T13:48:44;9.35;;;4.85;;
5321;SDS011;74629;59.304;18.294;2023-12-07T13:51:11;9.15;;;4.45;;
5321;SDS011;74629;59.304;18.294;2023-12-07T13:53:38;7.97;;;4.93;;
5321;SDS011;74629;59.304;18.294;2023-12-07T13:56:05;12.13;;;5.07;;
5321;SDS011;74629;59.304;18.294;2023-12-07T13:58:33;12.70;;;5.47;;
5321;SDS011;74629;59.304;18.294;2023-12-07T14:01:01;9.75;;;4.90;;
5321;SDS011;74629;59.304;18.294;2023-12-07T14:03:28;11.75;;;5.80;;
5321;SDS011;74629;59.304;18.294;2023-12-07T14:05:54;11.43;;;4.85;;
5321;SDS011;74629;59.304;18.294;2023-12-07T14:08:21;12.13;;;5.80;;
5321;SDS011;74629;59.304;18.294;2023-12-07T14:10:48;8.65;;;5.38;;
5321;SDS011;74629;59.304;18.294;2023-12-07T14:13:14;10.93;;;6.22;;
5321;SDS011;74629;59.304;18.294;2023-12-07T14:15:42;10.30;;;5.68;;
5321;SDS011;74629;59.304;18.294;2023-12-07T14:18:11;14.13;;;6.32;;
5321;SDS011;74629;59.304;18.294;2023-12-07T14:20:40;13.23;;;5.15;;
5321;SDS011;74629;59.304;18.294;2023-12-07T14:23:06;7.30;;;4.57;;
5321;SDS011;74629;59.304;18.294;2023-12-07T14:25:33;8.90;;;5.03;;
5321;SDS011;74629;59.304;18.294;2023-12-07T14:28:00;14.68;;;5.97;;
5321;SDS011;74629;59.304;18.294;2023-12-07T14:30:26;12.77;;;6.88;;
5321;SDS011;74629;59.304;18.294;2023-12-07T14:32:53;9.57;;;5.57;;
5321;SDS011;74629;59.304;18.294;2023-12-07T14:35:21;13.65;;;5.05;;
5321;SDS011;74629;59.304;18.294;2023-12-07T14:37:48;11.25;;;5.70;;
5321;SDS011;74629;59.304;18.294;2023-12-07T14:40:15;13.35;;;6.53;;
5321;SDS011;74629;59.304;18.294;2023-12-07T14:42:42;10.57;;;5.45;;
5321;SDS011;74629;59.304;18.294;2023-12-07T14:45:10;9.00;;;5.70;;
5321;SDS011;74629;59.304;18.294;2023-12-07T14:47:37;13.77;;;6.20;;
5321;SDS011;74629;59.304;18.294;2023-12-07T14:50:04;13.25;;;6.13;;